createdAt,value
2022-10-20T00:00:25.294Z,100795.13
2022-10-20T00:03:27.647Z,100798.00
2022-10-20T00:06:31.864Z,100795.31
2022-10-20T00:09:33.262Z,100795.25
2022-10-20T00:12:35.295Z,100789.16
2022-10-20T00:15:36.855Z,100792.13
2022-10-20T00:18:39.124Z,100786.88
2022-10-20T00:21:40.585Z,100786.69
2022-10-20T00:24:42.757Z,100778.94
2022-10-20T00:27:44.162Z,100778.94
2022-10-20T00:30:45.566Z,100785.44
2022-10-20T00:33:47.588Z,100787.22
2022-10-20T00:36:51.323Z,100782.97
2022-10-20T00:39:53.022Z,100791.72
2022-10-20T00:42:54.401Z,100781.22
2022-10-20T00:45:57.593Z,100774.19
2022-10-20T00:49:09.251Z,100775.19
2022-10-20T00:52:11.093Z,100774.19
2022-10-20T00:55:17.512Z,100753.25
2022-10-20T00:58:19.433Z,100747.47
2022-10-20T01:01:20.990Z,100742.91
2022-10-20T01:04:22.830Z,100748.44
2022-10-20T01:07:24.254Z,100737.88
2022-10-20T01:10:30.776Z,100742.19
2022-10-20T01:14:03.020Z,100746.78
2022-10-20T01:17:16.440Z,100745.09
2022-10-20T01:20:44.658Z,100743.38
2022-10-20T01:24:10.605Z,100739.44
2022-10-20T01:27:27.169Z,100725.84
2022-10-20T01:30:28.906Z,100726.03
2022-10-20T01:34:02.792Z,100724.59
2022-10-20T01:37:19.733Z,100720.97
2022-10-20T01:40:49.453Z,100720.28
2022-10-20T01:43:52.209Z,100719.41
2022-10-20T01:46:54.826Z,100705.41
2022-10-20T01:49:57.230Z,100701.75
2022-10-20T01:52:59.636Z,100690.31
2022-10-20T01:56:03.304Z,100685.16
2022-10-20T01:59:26.466Z,100683.44
2022-10-20T02:02:51.404Z,100687.03
2022-10-20T02:06:09.996Z,100680.78
2022-10-20T02:09:23.922Z,100676.41
2022-10-20T02:12:30.560Z,100675.84
2022-10-20T02:15:36.772Z,100663.31
2022-10-20T02:18:42.407Z,100670.34
2022-10-20T02:21:44.840Z,100673.91
2022-10-20T02:24:46.776Z,100669.34
2022-10-20T02:27:48.994Z,100682.63
2022-10-20T02:30:51.154Z,100668.38
2022-10-20T02:33:54.880Z,100674.69
2022-10-20T02:36:58.525Z,100679.06
2022-10-20T02:40:00.010Z,100675.72
2022-10-20T02:43:01.396Z,100658.16
2022-10-20T02:46:02.872Z,100668.69
2022-10-20T02:49:04.384Z,100662.50
2022-10-20T02:52:05.811Z,100669.56
2022-10-20T02:55:07.701Z,100666.97
2022-10-20T02:58:09.955Z,100663.41
2022-10-20T03:01:11.363Z,100653.69
2022-10-20T03:04:13.843Z,100647.78
2022-10-20T03:07:15.486Z,100657.38
2022-10-20T03:10:17.078Z,100648.59
2022-10-20T03:13:18.566Z,100653.38
2022-10-20T03:16:20.296Z,100645.53
2022-10-20T03:19:21.665Z,100648.81
2022-10-20T03:22:23.112Z,100655.72
2022-10-20T03:25:24.566Z,100653.19
2022-10-20T03:28:26.593Z,100655.94
2022-10-20T03:31:28.063Z,100655.03
2022-10-20T03:34:29.475Z,100638.50
2022-10-20T03:37:30.858Z,100634.97
2022-10-20T03:40:32.266Z,100636.56
2022-10-20T03:43:33.636Z,100624.09
2022-10-20T03:46:35.025Z,100616.97
2022-10-20T03:49:36.420Z,100618.19
2022-10-20T03:52:38.098Z,100612.72
2022-10-20T03:55:39.663Z,100604.09
2022-10-20T03:58:41.257Z,100600.63
2022-10-20T04:01:45.330Z,100605.19
2022-10-20T04:04:46.795Z,100603.41
2022-10-20T04:07:48.295Z,100612.06
2022-10-20T04:10:49.693Z,100623.66
2022-10-20T04:13:51.577Z,100631.56
2022-10-20T04:16:52.962Z,100626.28
2022-10-20T04:19:54.502Z,100615.78
2022-10-20T04:22:55.906Z,100613.06
2022-10-20T04:25:57.278Z,100613.81
2022-10-20T04:28:58.719Z,100612.06
2022-10-20T04:32:00.158Z,100614.66
2022-10-20T04:35:01.585Z,100614.91
2022-10-20T04:38:02.975Z,100598.22
2022-10-20T04:41:04.888Z,100579.84
2022-10-20T04:44:06.272Z,100576.34
2022-10-20T04:47:07.660Z,100579.16
2022-10-20T04:50:09.797Z,100574.91
2022-10-20T04:53:11.231Z,100580.06
2022-10-20T04:56:18.403Z,100570.66
2022-10-20T04:59:19.815Z,100555.97
2022-10-20T05:02:21.184Z,100557.78
2022-10-20T05:05:22.562Z,100543.53
2022-10-20T05:08:23.952Z,100546.22
2022-10-20T05:11:27.687Z,100555.31
2022-10-20T05:14:29.144Z,100552.38
2022-10-20T05:17:30.658Z,100563.88
2022-10-20T05:20:41.029Z,100558.38
2022-10-20T05:23:47.690Z,100551.19
2022-10-20T05:26:49.204Z,100543.44
2022-10-20T05:29:50.583Z,100531.13
2022-10-20T05:32:51.960Z,100542.66
2022-10-20T05:35:53.346Z,100538.38
2022-10-20T05:38:55.882Z,100531.13
2022-10-20T05:41:57.321Z,100526.81
2022-10-20T05:44:58.828Z,100518.84
2022-10-20T05:48:00.333Z,100522.28
2022-10-20T05:51:15.224Z,100516.19
2022-10-20T05:54:18.049Z,100526.75
2022-10-20T05:57:19.428Z,100517.97
2022-10-20T06:00:29.875Z,100508.25
2022-10-20T06:03:31.399Z,100512.75
2022-10-20T06:06:32.773Z,100511.81
2022-10-20T06:09:34.161Z,100515.38
2022-10-20T06:12:35.780Z,100519.94
2022-10-20T06:15:37.288Z,100542.66
2022-10-20T06:18:39.349Z,100558.53
2022-10-20T06:24:47.126Z,100555.88
2022-10-20T06:27:48.565Z,100563.34
2022-10-20T06:30:49.971Z,100563.25
2022-10-20T06:33:51.909Z,100586.09
2022-10-20T06:36:53.619Z,100569.63
2022-10-20T06:39:55.022Z,100572.09
2022-10-20T06:46:05.662Z,100565.91
2022-10-20T06:49:08.124Z,100567.44
2022-10-20T06:55:17.613Z,100566.97
2022-10-20T06:58:18.998Z,100580.94
2022-10-20T07:01:26.090Z,100587.63
2022-10-20T07:04:27.604Z,100591.81
2022-10-20T07:07:29.060Z,100584.47
2022-10-20T07:10:30.486Z,100587.59
2022-10-20T07:13:33.171Z,100582.97
2022-10-20T07:16:35.070Z,100586.34
2022-10-20T07:19:36.717Z,100571.59
2022-10-20T07:22:38.647Z,100585.94
2022-10-20T07:25:40.588Z,100593.69
2022-10-20T07:28:44.888Z,100590.44
2022-10-20T07:31:47.833Z,100585.25
2022-10-20T07:34:49.314Z,100585.00
2022-10-20T07:37:50.754Z,100568.97
2022-10-20T07:40:52.445Z,100560.81
2022-10-20T07:43:54.677Z,100566.91
2022-10-20T07:46:56.207Z,100573.75
2022-10-20T07:49:58.622Z,100571.66
2022-10-20T07:53:00.098Z,100569.25
2022-10-20T07:56:01.526Z,100567.13
2022-10-20T07:59:04.237Z,100549.97
2022-10-20T08:02:05.753Z,100543.75
2022-10-20T08:05:08.235Z,100540.16
2022-10-20T08:08:09.626Z,100546.25
2022-10-20T08:11:12.049Z,100564.47
2022-10-20T08:14:13.435Z,100562.47
2022-10-20T08:17:14.831Z,100566.94
2022-10-20T08:23:39.035Z,100571.53
2022-10-20T08:26:40.411Z,100574.56
2022-10-20T08:29:47.693Z,100569.53
2022-10-20T08:32:56.813Z,100550.81
2022-10-20T08:36:03.437Z,100562.34
2022-10-20T08:39:06.290Z,100562.03
2022-10-20T08:42:10.209Z,100551.50
2022-10-20T08:45:16.248Z,100559.06
2022-10-20T08:48:24.126Z,100562.16
2022-10-20T08:51:32.488Z,100562.97
2022-10-20T08:54:34.425Z,100580.09
2022-10-20T08:57:36.586Z,100581.53
2022-10-20T09:00:39.505Z,100578.75
2022-10-20T09:03:42.126Z,100567.09
2022-10-20T09:06:46.660Z,100564.91
2022-10-20T09:09:48.251Z,100566.81
2022-10-20T09:12:50.422Z,100567.06
2022-10-20T09:15:57.443Z,100576.31
2022-10-20T09:19:00.874Z,100586.75
2022-10-20T09:22:06.860Z,100584.38
2022-10-20T09:25:15.586Z,100594.41
2022-10-20T09:28:34.230Z,100606.19
2022-10-20T09:31:49.665Z,100602.75
2022-10-20T09:34:51.057Z,100600.91
2022-10-20T09:38:03.533Z,100587.44
2022-10-20T09:41:10.789Z,100582.22
2022-10-20T09:44:23.594Z,100583.31
2022-10-20T09:47:27.277Z,100588.03
2022-10-20T09:50:40.421Z,100574.91
2022-10-20T09:54:03.237Z,100580.84
2022-10-20T09:57:08.417Z,100575.88
2022-10-20T10:00:36.203Z,100576.22
2022-10-20T10:03:41.362Z,100567.00
2022-10-20T10:06:46.091Z,100562.56
2022-10-20T10:10:01.300Z,100557.19
2022-10-20T10:16:10.827Z,100527.66
2022-10-20T10:19:19.629Z,100539.00
2022-10-20T10:22:21.366Z,100542.59
2022-10-20T10:25:27.706Z,100523.72
2022-10-20T10:28:31.172Z,100547.22
2022-10-20T10:31:32.896Z,100536.59
2022-10-20T10:34:49.560Z,100537.28
2022-10-20T10:37:53.078Z,100541.41
2022-10-20T10:41:21.834Z,100501.47
2022-10-20T10:44:47.878Z,100529.28
2022-10-20T10:48:15.778Z,100526.28
2022-10-20T10:51:32.462Z,100509.75
2022-10-20T10:55:03.134Z,100512.69
2022-10-20T10:58:18.538Z,100512.03
2022-10-20T11:01:40.174Z,100500.50
2022-10-20T11:04:47.553Z,100519.22
2022-10-20T11:08:17.180Z,100523.44
2022-10-20T11:11:48.081Z,100516.84
2022-10-20T11:15:12.534Z,100518.31
2022-10-20T11:18:36.769Z,100484.72
2022-10-20T11:21:50.406Z,100493.06
2022-10-20T11:25:37.664Z,100495.91
2022-10-20T11:28:45.403Z,100487.81
2022-10-20T11:31:59.390Z,100473.38
2022-10-20T11:35:33.636Z,100469.25
2022-10-20T11:38:42.300Z,100460.44
2022-10-20T11:41:51.202Z,100476.66
2022-10-20T11:44:54.609Z,100474.94
2022-10-20T11:48:12.642Z,100480.59
2022-10-20T11:51:43.906Z,100487.41
2022-10-20T11:55:09.819Z,100496.19
2022-10-20T11:58:49.688Z,100496.06
2022-10-20T12:02:22.129Z,100496.06
2022-10-20T12:05:52.755Z,100497.94
2022-10-20T12:09:17.031Z,100497.94
2022-10-20T12:12:35.901Z,100500.69
2022-10-20T12:15:46.625Z,100490.88
2022-10-20T12:19:06.664Z,100477.69
2022-10-20T12:22:14.165Z,100488.41
2022-10-20T12:25:35.869Z,100484.22
2022-10-20T12:28:41.703Z,100482.75
2022-10-20T12:32:21.173Z,100484.03
2022-10-20T12:35:22.506Z,100479.66
2022-10-20T12:38:24.113Z,100470.06
2022-10-20T12:41:29.022Z,100466.53
2022-10-20T12:44:43.135Z,100461.81
2022-10-20T12:48:00.582Z,100453.66
2022-10-20T12:51:06.383Z,100439.59
2022-10-20T12:54:34.720Z,100436.00
2022-10-20T12:57:41.910Z,100444.91
2022-10-20T13:00:46.138Z,100436.66
2022-10-20T13:03:48.600Z,100429.47
2022-10-20T13:06:50.026Z,100423.28
2022-10-20T13:09:55.791Z,100402.88
2022-10-20T13:13:01.417Z,100394.19
2022-10-20T13:16:03.410Z,100389.66
2022-10-20T13:19:08.962Z,100387.00
2022-10-20T13:22:32.977Z,100380.72
2022-10-20T13:25:39.980Z,100403.47
2022-10-20T13:28:47.758Z,100411.78
2022-10-20T13:32:21.748Z,100423.44
2022-10-20T13:35:59.217Z,100425.00
2022-10-20T13:39:14.051Z,100451.50
2022-10-20T13:42:59.423Z,100447.31
2022-10-20T13:46:19.615Z,100431.69
2022-10-20T13:49:33.249Z,100422.00
2022-10-20T13:52:40.493Z,100429.03
2022-10-20T13:56:04.877Z,100421.72
2022-10-20T13:59:17.492Z,100429.63
2022-10-20T14:02:30.122Z,100446.28
2022-10-20T14:05:39.267Z,100452.63
2022-10-20T14:08:44.133Z,100459.16
2022-10-20T14:12:01.080Z,100460.28
2022-10-20T14:15:06.153Z,100444.13
2022-10-20T14:18:28.254Z,100442.00
2022-10-20T14:21:29.849Z,100438.81
2022-10-20T14:24:34.338Z,100430.75
2022-10-20T14:27:36.585Z,100427.91
2022-10-20T14:30:41.174Z,100426.00
2022-10-20T14:33:47.642Z,100423.34
2022-10-20T14:36:50.648Z,100420.88
2022-10-20T14:39:52.224Z,100402.16
2022-10-20T14:42:59.280Z,100395.22
2022-10-20T14:46:03.245Z,100383.13
2022-10-20T14:49:16.725Z,100393.41
2022-10-20T14:52:21.268Z,100384.66
2022-10-20T14:55:37.042Z,100377.97
2022-10-20T14:58:56.557Z,100364.50
2022-10-20T15:02:02.455Z,100361.91
2022-10-20T15:05:30.750Z,100355.47
2022-10-20T15:08:32.251Z,100347.50
2022-10-20T15:11:33.828Z,100342.00
2022-10-20T15:14:35.394Z,100350.94
2022-10-20T15:17:48.542Z,100347.59
2022-10-20T15:20:52.168Z,100352.06
2022-10-20T15:23:53.640Z,100347.97
2022-10-20T15:26:56.844Z,100344.50
2022-10-20T15:29:58.235Z,100350.88
2022-10-20T15:32:59.629Z,100351.63
2022-10-20T15:36:01.737Z,100338.34
2022-10-20T15:39:05.008Z,100337.59
2022-10-20T15:42:11.086Z,100341.78
2022-10-20T15:45:18.276Z,100349.16
2022-10-20T15:48:19.984Z,100365.78
2022-10-20T15:51:30.121Z,100372.56
2022-10-20T15:54:31.548Z,100365.38
2022-10-20T15:57:33.017Z,100379.59
2022-10-20T16:00:34.669Z,100387.78
2022-10-20T16:03:40.567Z,100391.53
2022-10-20T16:06:43.537Z,100390.78
2022-10-20T16:09:44.954Z,100381.94
2022-10-20T16:12:46.398Z,100375.56
2022-10-20T16:15:47.810Z,100370.44
2022-10-20T16:18:49.282Z,100366.22
2022-10-20T16:21:50.672Z,100352.31
2022-10-20T16:24:52.501Z,100339.91
2022-10-20T16:27:53.907Z,100343.88
2022-10-20T16:31:02.491Z,100345.81
2022-10-20T16:34:03.895Z,100358.59
2022-10-20T16:37:05.348Z,100386.50
2022-10-20T16:40:07.153Z,100381.41
2022-10-20T16:43:08.531Z,100383.47
2022-10-20T16:46:11.881Z,100369.09
2022-10-20T16:49:13.463Z,100355.16
2022-10-20T16:52:14.865Z,100358.81
2022-10-20T16:55:16.358Z,100359.13
2022-10-20T16:58:17.740Z,100358.59
2022-10-20T17:01:21.338Z,100352.78
2022-10-20T17:04:23.857Z,100362.47
2022-10-20T17:07:25.258Z,100354.63
2022-10-20T17:10:26.690Z,100329.19
2022-10-20T17:13:29.337Z,100339.00
2022-10-20T17:16:33.502Z,100340.19
2022-10-20T17:19:35.274Z,100349.81
2022-10-20T17:22:36.920Z,100339.34
2022-10-20T17:25:39.052Z,100333.19
2022-10-20T17:28:40.659Z,100331.47
2022-10-20T17:31:42.150Z,100352.88
2022-10-20T17:34:43.538Z,100368.28
2022-10-20T17:37:44.916Z,100370.00
2022-10-20T17:40:46.399Z,100376.34
2022-10-20T17:43:47.986Z,100392.50
2022-10-20T17:46:49.366Z,100409.63
2022-10-20T17:49:50.746Z,100389.66
2022-10-20T17:52:52.193Z,100368.56
2022-10-20T17:55:53.750Z,100373.19
2022-10-20T17:58:56.297Z,100386.84
2022-10-20T18:01:57.785Z,100363.03
2022-10-20T18:04:59.368Z,100351.47
2022-10-20T18:08:00.908Z,100343.81
2022-10-20T18:11:02.432Z,100345.81
2022-10-20T18:14:04.247Z,100338.63
2022-10-20T18:17:05.785Z,100326.34
2022-10-20T18:20:07.530Z,100335.19
2022-10-20T18:23:08.935Z,100342.59
2022-10-20T18:26:13.511Z,100329.94
2022-10-20T18:29:16.808Z,100333.69
2022-10-20T18:32:18.240Z,100316.06
2022-10-20T18:38:26.032Z,100293.81
2022-10-20T18:41:30.146Z,100300.00
2022-10-20T18:44:32.391Z,100296.56
2022-10-20T18:47:33.850Z,100316.38
2022-10-20T18:50:35.281Z,100318.09
2022-10-20T18:53:38.103Z,100295.31
2022-10-20T18:56:39.719Z,100279.72
2022-10-20T18:59:41.154Z,100289.31
2022-10-20T19:02:42.662Z,100277.81
2022-10-20T19:05:44.073Z,100265.53
2022-10-20T19:08:45.593Z,100270.84
2022-10-20T19:14:54.933Z,100283.31
2022-10-20T19:18:00.840Z,100280.59
2022-10-20T19:21:06.055Z,100281.44
2022-10-20T19:24:11.621Z,100287.44
2022-10-20T19:27:28.285Z,100275.88
2022-10-20T19:30:34.986Z,100281.44
2022-10-20T19:33:36.374Z,100277.22
2022-10-20T19:36:40.520Z,100300.16
2022-10-20T19:39:42.685Z,100286.03
2022-10-20T19:42:44.108Z,100281.59
2022-10-20T19:45:49.065Z,100290.59
2022-10-20T19:48:51.407Z,100304.53
2022-10-20T19:51:53.343Z,100312.50
2022-10-20T19:54:54.735Z,100311.56
2022-10-20T19:57:56.199Z,100307.81
2022-10-20T20:00:59.119Z,100312.97
2022-10-20T20:04:00.768Z,100312.97
2022-10-20T20:07:02.684Z,100303.03
2022-10-20T20:10:04.541Z,100302.19
2022-10-20T20:13:06.039Z,100298.41
2022-10-20T20:16:08.341Z,100292.25
2022-10-20T20:19:09.942Z,100293.91
2022-10-20T20:22:11.456Z,100289.53
2022-10-20T20:25:12.870Z,100296.56
2022-10-20T20:28:14.382Z,100280.44
2022-10-20T20:31:15.847Z,100297.94
2022-10-20T20:34:17.262Z,100300.50
2022-10-20T20:37:18.728Z,100295.13
2022-10-20T20:40:20.530Z,100298.56
2022-10-20T20:43:21.958Z,100294.88
2022-10-20T20:46:24.797Z,100304.63
2022-10-20T20:49:26.236Z,100304.47
2022-10-20T20:52:29.311Z,100301.22
2022-10-20T20:55:30.686Z,100304.56
2022-10-20T20:58:33.056Z,100302.50
2022-10-20T21:01:34.535Z,100307.22
2022-10-20T21:04:36.330Z,100311.84
2022-10-20T21:07:38.044Z,100296.91
2022-10-20T21:10:39.721Z,100280.13
2022-10-20T21:13:42.470Z,100290.59
2022-10-20T21:16:44.446Z,100293.41
2022-10-20T21:19:45.960Z,100282.72
2022-10-20T21:22:47.439Z,100268.56
2022-10-20T21:25:49.511Z,100261.41
2022-10-20T21:28:51.343Z,100265.00
2022-10-20T21:31:53.121Z,100262.25
2022-10-20T21:34:55.169Z,100249.00
2022-10-20T21:37:57.353Z,100243.50
2022-10-20T21:41:06.944Z,100236.47
2022-10-20T21:44:09.219Z,100238.97
2022-10-20T21:47:10.756Z,100249.66
2022-10-20T21:50:12.188Z,100250.34
2022-10-20T21:53:13.571Z,100242.16
2022-10-20T21:56:15.589Z,100217.47
2022-10-20T21:59:19.815Z,100218.28
2022-10-20T22:02:21.190Z,100221.94
2022-10-20T22:05:22.636Z,100228.09
2022-10-20T22:08:24.017Z,100224.50
2022-10-20T22:11:31.922Z,100220.94
2022-10-20T22:14:33.440Z,100217.47
2022-10-20T22:17:35.047Z,100231.53
2022-10-20T22:20:37.360Z,100210.38
2022-10-20T22:23:38.760Z,100211.31
2022-10-20T22:26:41.562Z,100197.25
2022-10-20T22:29:42.946Z,100222.78
2022-10-20T22:32:44.342Z,100227.91
2022-10-20T22:35:45.735Z,100197.25
2022-10-20T22:38:47.192Z,100200.69
2022-10-20T22:41:48.570Z,100191.94
2022-10-20T22:44:49.994Z,100182.78
2022-10-20T22:47:51.421Z,100187.16
2022-10-20T22:50:53.028Z,100182.56
2022-10-20T22:53:54.443Z,100176.19
2022-10-20T22:56:55.885Z,100170.75
2022-10-20T22:59:57.366Z,100170.41
2022-10-20T23:02:58.798Z,100183.81
2022-10-20T23:06:00.212Z,100200.88
2022-10-20T23:09:01.638Z,100212.19
2022-10-20T23:12:03.293Z,100201.56
2022-10-20T23:15:06.340Z,100208.91
2022-10-20T23:18:07.734Z,100210.72
2022-10-20T23:21:09.454Z,100233.06
2022-10-20T23:24:10.846Z,100231.22
2022-10-20T23:27:12.236Z,100236.59
2022-10-20T23:30:13.618Z,100231.34
2022-10-20T23:33:15.080Z,100252.66
2022-10-20T23:36:16.837Z,100245.56
2022-10-20T23:39:18.270Z,100257.31
2022-10-20T23:42:19.642Z,100270.41
2022-10-20T23:45:21.190Z,100264.16
2022-10-20T23:48:22.589Z,100257.06
2022-10-20T23:51:24.059Z,100255.44
2022-10-20T23:54:25.440Z,100246.94
2022-10-20T23:57:26.819Z,100241.72
